sensor_id;sensor_type;location;lat;lon;timestamp;P1;durP1;ratioP1;P2;durP2;ratioP2
14486;SDS011;7329;50.866;4.366;2022-12-07T00:01:06;6.57;;;4.25;;
14486;SDS011;7329;50.866;4.366;2022-12-07T00:03:11;5.57;;;4.07;;
14486;SDS011;7329;50.866;4.366;2022-12-07T00:05:13;4.93;;;3.75;;
14486;SDS011;7329;50.866;4.366;2022-12-07T00:07:15;5.13;;;4.00;;
14486;SDS011;7329;50.866;4.366;2022-12-07T00:09:18;4.75;;;4.15;;
14486;SDS011;7329;50.866;4.366;2022-12-07T00:11:21;4.53;;;3.40;;
14486;SDS011;7329;50.866;4.366;2022-12-07T00:13:24;4.60;;;3.60;;
14486;SDS011;7329;50.866;4.366;2022-12-07T00:15:26;4.90;;;4.00;;
14486;SDS011;7329;50.866;4.366;2022-12-07T00:17:29;5.18;;;3.88;;
14486;SDS011;7329;50.866;4.366;2022-12-07T00:19:32;5.75;;;4.07;;
14486;SDS011;7329;50.866;4.366;2022-12-07T00:21:35;5.60;;;3.90;;
14486;SDS011;7329;50.866;4.366;2022-12-07T00:23:37;4.40;;;3.72;;
14486;SDS011;7329;50.866;4.366;2022-12-07T00:25:40;4.40;;;3.80;;
14486;SDS011;7329;50.866;4.366;2022-12-07T00:27:42;4.60;;;3.75;;
14486;SDS011;7329;50.866;4.366;2022-12-07T00:29:45;6.32;;;3.95;;
14486;SDS011;7329;50.866;4.366;2022-12-07T00:31:47;5.70;;;3.88;;
14486;SDS011;7329;50.866;4.366;2022-12-07T00:33:50;6.07;;;4.03;;
14486;SDS011;7329;50.866;4.366;2022-12-07T00:35:56;5.47;;;4.03;;
14486;SDS011;7329;50.866;4.366;2022-12-07T00:37:58;4.13;;;3.45;;
14486;SDS011;7329;50.866;4.366;2022-12-07T00:40:01;5.70;;;4.00;;
14486;SDS011;7329;50.866;4.366;2022-12-07T00:42:03;4.40;;;3.95;;
14486;SDS011;7329;50.866;4.366;2022-12-07T00:44:05;4.18;;;3.47;;
14486;SDS011;7329;50.866;4.366;2022-12-07T00:46:08;4.82;;;3.85;;
14486;SDS011;7329;50.866;4.366;2022-12-07T00:48:11;4.00;;;3.13;;
14486;SDS011;7329;50.866;4.366;2022-12-07T00:50:13;4.82;;;4.03;;
14486;SDS011;7329;50.866;4.366;2022-12-07T00:52:17;4.47;;;3.88;;
14486;SDS011;7329;50.866;4.366;2022-12-07T00:54:19;5.45;;;4.28;;
14486;SDS011;7329;50.866;4.366;2022-12-07T00:56:22;4.88;;;3.90;;
14486;SDS011;7329;50.866;4.366;2022-12-07T00:58:25;4.28;;;3.50;;
14486;SDS011;7329;50.866;4.366;2022-12-07T01:00:28;4.53;;;3.85;;
14486;SDS011;7329;50.866;4.366;2022-12-07T01:02:30;5.88;;;3.92;;
14486;SDS011;7329;50.866;4.366;2022-12-07T01:04:33;5.07;;;3.67;;
14486;SDS011;7329;50.866;4.366;2022-12-07T01:06:35;5.35;;;3.90;;
14486;SDS011;7329;50.866;4.366;2022-12-07T01:08:39;4.60;;;3.70;;
14486;SDS011;7329;50.866;4.366;2022-12-07T01:10:41;5.13;;;3.97;;
14486;SDS011;7329;50.866;4.366;2022-12-07T01:12:44;5.90;;;4.05;;
14486;SDS011;7329;50.866;4.366;2022-12-07T01:14:46;4.47;;;3.70;;
14486;SDS011;7329;50.866;4.366;2022-12-07T01:16:48;5.40;;;3.67;;
14486;SDS011;7329;50.866;4.366;2022-12-07T01:18:52;5.72;;;3.72;;
14486;SDS011;7329;50.866;4.366;2022-12-07T01:20:59;5.88;;;3.63;;
14486;SDS011;7329;50.866;4.366;2022-12-07T01:23:02;4.65;;;3.72;;
14486;SDS011;7329;50.866;4.366;2022-12-07T01:25:06;5.35;;;3.72;;
14486;SDS011;7329;50.866;4.366;2022-12-07T01:27:09;4.57;;;3.70;;
14486;SDS011;7329;50.866;4.366;2022-12-07T01:29:12;4.88;;;3.75;;
14486;SDS011;7329;50.866;4.366;2022-12-07T01:31:15;5.80;;;3.97;;
14486;SDS011;7329;50.866;4.366;2022-12-07T01:33:18;5.30;;;4.07;;
14486;SDS011;7329;50.866;4.366;2022-12-07T01:35:21;6.00;;;3.90;;
14486;SDS011;7329;50.866;4.366;2022-12-07T01:37:23;4.35;;;3.88;;
14486;SDS011;7329;50.866;4.366;2022-12-07T01:39:26;4.75;;;3.83;;
14486;SDS011;7329;50.866;4.366;2022-12-07T01:41:30;5.45;;;4.05;;
14486;SDS011;7329;50.866;4.366;2022-12-07T01:43:34;5.43;;;3.92;;
14486;SDS011;7329;50.866;4.366;2022-12-07T01:45:38;4.55;;;3.65;;
14486;SDS011;7329;50.866;4.366;2022-12-07T01:47:41;4.55;;;3.63;;
14486;SDS011;7329;50.866;4.366;2022-12-07T01:49:45;3.72;;;3.20;;
14486;SDS011;7329;50.866;4.366;2022-12-07T01:51:50;4.78;;;4.15;;
14486;SDS011;7329;50.866;4.366;2022-12-07T01:53:57;5.75;;;3.72;;
14486;SDS011;7329;50.866;4.366;2022-12-07T01:56:00;4.43;;;3.60;;
14486;SDS011;7329;50.866;4.366;2022-12-07T01:58:04;4.60;;;3.72;;
14486;SDS011;7329;50.866;4.366;2022-12-07T02:00:07;5.03;;;3.92;;
14486;SDS011;7329;50.866;4.366;2022-12-07T02:02:12;4.35;;;3.80;;
14486;SDS011;7329;50.866;4.366;2022-12-07T02:04:19;5.10;;;3.92;;
14486;SDS011;7329;50.866;4.366;2022-12-07T02:06:23;4.15;;;3.60;;
14486;SDS011;7329;50.866;4.366;2022-12-07T02:08:28;5.38;;;3.63;;
14486;SDS011;7329;50.866;4.366;2022-12-07T02:10:31;4.47;;;3.83;;
14486;SDS011;7329;50.866;4.366;2022-12-07T02:12:33;4.82;;;3.33;;
14486;SDS011;7329;50.866;4.366;2022-12-07T02:14:37;4.05;;;3.45;;
14486;SDS011;7329;50.866;4.366;2022-12-07T02:16:43;6.50;;;3.67;;
14486;SDS011;7329;50.866;4.366;2022-12-07T02:18:59;4.22;;;3.72;;
14486;SDS011;7329;50.866;4.366;2022-12-07T02:21:29;3.88;;;3.45;;
14486;SDS011;7329;50.866;4.366;2022-12-07T02:23:40;4.97;;;3.42;;
14486;SDS011;7329;50.866;4.366;2022-12-07T02:28:52;4.85;;;3.67;;
14486;SDS011;7329;50.866;4.366;2022-12-07T02:31:10;5.95;;;4.15;;
14486;SDS011;7329;50.866;4.366;2022-12-07T02:33:18;5.82;;;3.42;;
14486;SDS011;7329;50.866;4.366;2022-12-07T02:35:28;4.47;;;3.58;;
14486;SDS011;7329;50.866;4.366;2022-12-07T02:37:35;5.38;;;3.72;;
14486;SDS011;7329;50.866;4.366;2022-12-07T02:39:41;3.70;;;3.30;;
14486;SDS011;7329;50.866;4.366;2022-12-07T02:41:47;4.88;;;3.53;;
14486;SDS011;7329;50.866;4.366;2022-12-07T02:43:55;4.60;;;3.60;;
14486;SDS011;7329;50.866;4.366;2022-12-07T02:46:01;4.55;;;3.80;;
14486;SDS011;7329;50.866;4.366;2022-12-07T02:48:06;4.25;;;3.70;;
14486;SDS011;7329;50.866;4.366;2022-12-07T02:50:11;3.83;;;3.25;;
14486;SDS011;7329;50.866;4.366;2022-12-07T02:52:14;5.85;;;4.05;;
14486;SDS011;7329;50.866;4.366;2022-12-07T02:54:17;4.43;;;3.80;;
14486;SDS011;7329;50.866;4.366;2022-12-07T02:56:22;4.25;;;3.85;;
14486;SDS011;7329;50.866;4.366;2022-12-07T02:58:33;5.03;;;3.80;;
14486;SDS011;7329;50.866;4.366;2022-12-07T03:00:49;3.67;;;3.22;;
14486;SDS011;7329;50.866;4.366;2022-12-07T03:02:58;3.60;;;3.30;;
14486;SDS011;7329;50.866;4.366;2022-12-07T03:05:07;3.55;;;3.25;;
14486;SDS011;7329;50.866;4.366;2022-12-07T03:07:31;5.20;;;3.65;;
14486;SDS011;7329;50.866;4.366;2022-12-07T03:09:42;4.40;;;4.00;;
14486;SDS011;7329;50.866;4.366;2022-12-07T03:11:54;5.53;;;3.80;;
14486;SDS011;7329;50.866;4.366;2022-12-07T03:14:04;6.28;;;3.53;;
14486;SDS011;7329;50.866;4.366;2022-12-07T03:16:17;4.40;;;3.40;;
14486;SDS011;7329;50.866;4.366;2022-12-07T03:18:22;5.20;;;3.78;;
14486;SDS011;7329;50.866;4.366;2022-12-07T03:20:27;4.53;;;3.45;;
14486;SDS011;7329;50.866;4.366;2022-12-07T03:22:31;3.90;;;3.35;;
14486;SDS011;7329;50.866;4.366;2022-12-07T03:24:38;4.43;;;3.67;;
14486;SDS011;7329;50.866;4.366;2022-12-07T03:26:44;3.90;;;3.50;;
14486;SDS011;7329;50.866;4.366;2022-12-07T03:28:52;4.47;;;3.50;;
14486;SDS011;7329;50.866;4.366;2022-12-07T03:31:00;4.05;;;3.10;;
14486;SDS011;7329;50.866;4.366;2022-12-07T03:33:06;3.15;;;2.83;;
14486;SDS011;7329;50.866;4.366;2022-12-07T03:35:14;4.28;;;3.25;;
14486;SDS011;7329;50.866;4.366;2022-12-07T03:37:20;5.35;;;3.40;;
14486;SDS011;7329;50.866;4.366;2022-12-07T03:39:29;4.30;;;3.47;;
14486;SDS011;7329;50.866;4.366;2022-12-07T03:41:35;4.53;;;3.53;;
14486;SDS011;7329;50.866;4.366;2022-12-07T03:43:39;3.95;;;3.25;;
14486;SDS011;7329;50.866;4.366;2022-12-07T03:45:43;4.68;;;3.20;;
14486;SDS011;7329;50.866;4.366;2022-12-07T03:47:53;3.65;;;2.83;;
14486;SDS011;7329;50.866;4.366;2022-12-07T03:50:06;4.28;;;3.47;;
14486;SDS011;7329;50.866;4.366;2022-12-07T03:52:16;3.47;;;3.10;;
14486;SDS011;7329;50.866;4.366;2022-12-07T03:54:24;3.67;;;3.35;;
14486;SDS011;7329;50.866;4.366;2022-12-07T03:56:30;4.88;;;3.85;;
14486;SDS011;7329;50.866;4.366;2022-12-07T03:58:34;4.20;;;3.67;;
14486;SDS011;7329;50.866;4.366;2022-12-07T04:00:37;3.42;;;3.13;;
14486;SDS011;7329;50.866;4.366;2022-12-07T04:02:40;3.80;;;3.20;;
14486;SDS011;7329;50.866;4.366;2022-12-07T04:04:44;3.95;;;3.40;;
14486;SDS011;7329;50.866;4.366;2022-12-07T04:06:48;3.60;;;3.00;;
14486;SDS011;7329;50.866;4.366;2022-12-07T04:08:50;3.67;;;3.08;;
14486;SDS011;7329;50.866;4.366;2022-12-07T04:10:52;3.58;;;3.28;;
14486;SDS011;7329;50.866;4.366;2022-12-07T04:12:55;3.70;;;3.03;;
14486;SDS011;7329;50.866;4.366;2022-12-07T04:14:57;4.00;;;3.42;;
14486;SDS011;7329;50.866;4.366;2022-12-07T04:17:00;3.60;;;3.20;;
14486;SDS011;7329;50.866;4.366;2022-12-07T04:19:02;4.30;;;3.72;;
14486;SDS011;7329;50.866;4.366;2022-12-07T04:21:04;3.38;;;2.88;;
14486;SDS011;7329;50.866;4.366;2022-12-07T04:23:08;4.97;;;3.22;;
14486;SDS011;7329;50.866;4.366;2022-12-07T04:25:10;3.90;;;3.40;;
14486;SDS011;7329;50.866;4.366;2022-12-07T04:27:13;3.70;;;3.30;;
14486;SDS011;7329;50.866;4.366;2022-12-07T04:29:15;3.83;;;3.33;;
14486;SDS011;7329;50.866;4.366;2022-12-07T04:31:18;4.97;;;3.20;;
14486;SDS011;7329;50.866;4.366;2022-12-07T04:33:21;4.97;;;3.42;;
14486;SDS011;7329;50.866;4.366;2022-12-07T04:35:23;3.25;;;2.83;;
14486;SDS011;7329;50.866;4.366;2022-12-07T04:37:25;3.33;;;3.00;;
14486;SDS011;7329;50.866;4.366;2022-12-07T04:39:30;5.05;;;3.33;;
14486;SDS011;7329;50.866;4.366;2022-12-07T04:41:34;3.80;;;3.40;;
14486;SDS011;7329;50.866;4.366;2022-12-07T04:43:37;4.07;;;3.10;;
14486;SDS011;7329;50.866;4.366;2022-12-07T04:45:39;4.45;;;3.10;;
14486;SDS011;7329;50.866;4.366;2022-12-07T04:47:46;4.88;;;3.53;;
14486;SDS011;7329;50.866;4.366;2022-12-07T04:49:48;5.82;;;3.20;;
14486;SDS011;7329;50.866;4.366;2022-12-07T04:51:51;4.18;;;3.47;;
14486;SDS011;7329;50.866;4.366;2022-12-07T04:53:54;3.75;;;3.13;;
14486;SDS011;7329;50.866;4.366;2022-12-07T04:55:58;4.53;;;3.55;;
14486;SDS011;7329;50.866;4.366;2022-12-07T04:58:01;4.63;;;3.58;;
14486;SDS011;7329;50.866;4.366;2022-12-07T05:00:04;4.00;;;3.17;;
14486;SDS011;7329;50.866;4.366;2022-12-07T05:02:07;4.68;;;3.08;;
14486;SDS011;7329;50.866;4.366;2022-12-07T05:04:10;3.90;;;3.17;;
14486;SDS011;7329;50.866;4.366;2022-12-07T05:06:12;4.82;;;3.22;;
14486;SDS011;7329;50.866;4.366;2022-12-07T05:08:15;4.10;;;3.08;;
14486;SDS011;7329;50.866;4.366;2022-12-07T05:10:17;3.85;;;3.00;;
14486;SDS011;7329;50.866;4.366;2022-12-07T05:12:21;3.42;;;3.00;;
14486;SDS011;7329;50.866;4.366;2022-12-07T05:14:23;3.50;;;3.20;;
14486;SDS011;7329;50.866;4.366;2022-12-07T05:16:26;3.60;;;3.17;;
14486;SDS011;7329;50.866;4.366;2022-12-07T05:18:28;4.03;;;3.10;;
14486;SDS011;7329;50.866;4.366;2022-12-07T05:20:31;3.28;;;2.97;;
14486;SDS011;7329;50.866;4.366;2022-12-07T05:22:33;3.83;;;2.95;;
14486;SDS011;7329;50.866;4.366;2022-12-07T05:24:36;4.00;;;3.30;;
14486;SDS011;7329;50.866;4.366;2022-12-07T05:26:38;3.42;;;2.90;;
14486;SDS011;7329;50.866;4.366;2022-12-07T05:28:42;3.65;;;3.10;;
14486;SDS011;7329;50.866;4.366;2022-12-07T05:30:45;3.42;;;2.92;;
14486;SDS011;7329;50.866;4.366;2022-12-07T05:32:47;3.03;;;2.67;;
14486;SDS011;7329;50.866;4.366;2022-12-07T05:34:50;3.60;;;3.20;;
14486;SDS011;7329;50.866;4.366;2022-12-07T05:36:52;4.22;;;3.22;;
14486;SDS011;7329;50.866;4.366;2022-12-07T05:38:55;4.03;;;2.90;;
14486;SDS011;7329;50.866;4.366;2022-12-07T05:40:59;3.80;;;3.00;;
14486;SDS011;7329;50.866;4.366;2022-12-07T05:43:02;4.25;;;3.25;;
14486;SDS011;7329;50.866;4.366;2022-12-07T05:45:07;3.65;;;3.00;;
14486;SDS011;7329;50.866;4.366;2022-12-07T05:47:11;5.13;;;3.30;;
14486;SDS011;7329;50.866;4.366;2022-12-07T05:49:14;4.13;;;2.92;;
14486;SDS011;7329;50.866;4.366;2022-12-07T05:51:16;3.83;;;3.15;;
14486;SDS011;7329;50.866;4.366;2022-12-07T05:53:19;3.95;;;3.05;;
14486;SDS011;7329;50.866;4.366;2022-12-07T05:55:22;4.57;;;3.17;;
14486;SDS011;7329;50.866;4.366;2022-12-07T05:57:24;3.50;;;3.17;;
14486;SDS011;7329;50.866;4.366;2022-12-07T05:59:26;4.40;;;3.28;;
14486;SDS011;7329;50.866;4.366;2022-12-07T06:01:29;5.13;;;3.10;;
14486;SDS011;7329;50.866;4.366;2022-12-07T06:03:32;3.10;;;2.80;;
14486;SDS011;7329;50.866;4.366;2022-12-07T06:05:34;3.00;;;2.67;;
14486;SDS011;7329;50.866;4.366;2022-12-07T06:07:36;4.35;;;2.95;;
14486;SDS011;7329;50.866;4.366;2022-12-07T06:09:39;4.40;;;3.10;;
14486;SDS011;7329;50.866;4.366;2022-12-07T06:11:44;3.50;;;3.05;;
14486;SDS011;7329;50.866;4.366;2022-12-07T06:14:04;4.30;;;2.63;;
14486;SDS011;7329;50.866;4.366;2022-12-07T06:16:06;3.40;;;3.10;;
14486;SDS011;7329;50.866;4.366;2022-12-07T06:18:10;3.17;;;2.83;;
14486;SDS011;7329;50.866;4.366;2022-12-07T06:20:13;4.82;;;2.88;;
14486;SDS011;7329;50.866;4.366;2022-12-07T06:22:15;3.00;;;2.67;;
14486;SDS011;7329;50.866;4.366;2022-12-07T06:24:18;4.82;;;3.00;;
14486;SDS011;7329;50.866;4.366;2022-12-07T06:26:20;3.30;;;2.80;;
14486;SDS011;7329;50.866;4.366;2022-12-07T06:28:22;2.83;;;2.50;;
14486;SDS011;7329;50.866;4.366;2022-12-07T06:30:25;3.03;;;2.50;;
14486;SDS011;7329;50.866;4.366;2022-12-07T06:32:27;3.00;;;2.70;;
14486;SDS011;7329;50.866;4.366;2022-12-07T06:34:31;3.58;;;2.70;;
14486;SDS011;7329;50.866;4.366;2022-12-07T06:36:33;3.45;;;2.70;;
14486;SDS011;7329;50.866;4.366;2022-12-07T06:38:36;3.90;;;2.60;;
14486;SDS011;7329;50.866;4.366;2022-12-07T06:40:38;3.15;;;2.67;;
14486;SDS011;7329;50.866;4.366;2022-12-07T06:42:41;3.58;;;2.50;;
14486;SDS011;7329;50.866;4.366;2022-12-07T06:44:43;3.17;;;2.63;;
14486;SDS011;7329;50.866;4.366;2022-12-07T06:46:46;4.07;;;2.85;;
14486;SDS011;7329;50.866;4.366;2022-12-07T06:48:48;3.38;;;2.50;;
14486;SDS011;7329;50.866;4.366;2022-12-07T06:50:52;4.47;;;2.75;;
14486;SDS011;7329;50.866;4.366;2022-12-07T06:52:54;4.38;;;2.88;;
14486;SDS011;7329;50.866;4.366;2022-12-07T06:54:56;3.50;;;2.60;;
14486;SDS011;7329;50.866;4.366;2022-12-07T06:56:59;3.60;;;2.63;;
14486;SDS011;7329;50.866;4.366;2022-12-07T06:59:01;3.05;;;2.63;;
14486;SDS011;7329;50.866;4.366;2022-12-07T07:01:07;3.42;;;2.42;;
14486;SDS011;7329;50.866;4.366;2022-12-07T07:03:10;2.80;;;2.50;;
14486;SDS011;7329;50.866;4.366;2022-12-07T07:05:13;3.67;;;2.90;;
14486;SDS011;7329;50.866;4.366;2022-12-07T07:07:17;2.70;;;2.50;;
14486;SDS011;7329;50.866;4.366;2022-12-07T07:09:19;2.75;;;2.40;;
14486;SDS011;7329;50.866;4.366;2022-12-07T07:11:22;3.35;;;2.60;;
14486;SDS011;7329;50.866;4.366;2022-12-07T07:13:24;3.00;;;2.47;;
14486;SDS011;7329;50.866;4.366;2022-12-07T07:15:27;4.20;;;2.65;;
14486;SDS011;7329;50.866;4.366;2022-12-07T07:17:29;3.28;;;2.53;;
14486;SDS011;7329;50.866;4.366;2022-12-07T07:19:31;3.72;;;2.53;;
14486;SDS011;7329;50.866;4.366;2022-12-07T07:21:34;3.22;;;2.47;;
14486;SDS011;7329;50.866;4.366;2022-12-07T07:23:37;3.50;;;2.40;;
14486;SDS011;7329;50.866;4.366;2022-12-07T07:25:40;2.53;;;2.20;;
14486;SDS011;7329;50.866;4.366;2022-12-07T07:27:42;3.38;;;2.20;;
14486;SDS011;7329;50.866;4.366;2022-12-07T07:29:45;2.47;;;2.22;;
14486;SDS011;7329;50.866;4.366;2022-12-07T07:31:47;2.97;;;2.50;;
14486;SDS011;7329;50.866;4.366;2022-12-07T07:33:49;2.97;;;2.42;;
14486;SDS011;7329;50.866;4.366;2022-12-07T07:35:52;2.42;;;2.22;;
14486;SDS011;7329;50.866;4.366;2022-12-07T07:37:54;4.43;;;2.67;;
14486;SDS011;7329;50.866;4.366;2022-12-07T07:40:00;2.70;;;2.28;;
14486;SDS011;7329;50.866;4.366;2022-12-07T07:42:03;3.83;;;2.55;;
14486;SDS011;7329;50.866;4.366;2022-12-07T07:44:05;2.90;;;2.20;;
14486;SDS011;7329;50.866;4.366;2022-12-07T07:46:08;2.70;;;2.30;;
14486;SDS011;7329;50.866;4.366;2022-12-07T07:48:11;2.88;;;2.28;;
14486;SDS011;7329;50.866;4.366;2022-12-07T07:50:13;2.30;;;2.10;;
14486;SDS011;7329;50.866;4.366;2022-12-07T07:52:16;3.33;;;2.40;;
14486;SDS011;7329;50.866;4.366;2022-12-07T07:54:18;4.35;;;2.55;;
14486;SDS011;7329;50.866;4.366;2022-12-07T07:56:22;3.03;;;2.17;;
14486;SDS011;7329;50.866;4.366;2022-12-07T07:58:25;4.65;;;2.60;;
14486;SDS011;7329;50.866;4.366;2022-12-07T08:00:27;3.17;;;2.60;;
14486;SDS011;7329;50.866;4.366;2022-12-07T08:02:29;3.28;;;2.35;;
14486;SDS011;7329;50.866;4.366;2022-12-07T08:04:32;3.60;;;2.38;;
14486;SDS011;7329;50.866;4.366;2022-12-07T08:06:34;2.90;;;2.50;;
14486;SDS011;7329;50.866;4.366;2022-12-07T08:08:36;4.25;;;2.33;;
14486;SDS011;7329;50.866;4.366;2022-12-07T08:10:39;3.00;;;2.47;;
14486;SDS011;7329;50.866;4.366;2022-12-07T08:12:43;3.13;;;2.35;;
14486;SDS011;7329;50.866;4.366;2022-12-07T08:15:03;3.03;;;2.63;;
14486;SDS011;7329;50.866;4.366;2022-12-07T08:17:06;4.97;;;2.67;;
14486;SDS011;7329;50.866;4.366;2022-12-07T08:19:08;7.35;;;3.20;;
14486;SDS011;7329;50.866;4.366;2022-12-07T08:21:12;4.95;;;2.47;;
14486;SDS011;7329;50.866;4.366;2022-12-07T08:23:15;4.38;;;2.72;;
14486;SDS011;7329;50.866;4.366;2022-12-07T08:25:18;3.58;;;2.45;;
14486;SDS011;7329;50.866;4.366;2022-12-07T08:27:21;4.05;;;2.70;;
14486;SDS011;7329;50.866;4.366;2022-12-07T08:29:28;3.65;;;2.47;;
14486;SDS011;7329;50.866;4.366;2022-12-07T08:31:31;4.38;;;2.50;;
14486;SDS011;7329;50.866;4.366;2022-12-07T08:33:33;6.90;;;2.60;;
14486;SDS011;7329;50.866;4.366;2022-12-07T08:35:36;4.57;;;3.22;;
14486;SDS011;7329;50.866;4.366;2022-12-07T08:37:39;10.43;;;5.05;;
14486;SDS011;7329;50.866;4.366;2022-12-07T08:39:41;9.20;;;6.88;;
14486;SDS011;7329;50.866;4.366;2022-12-07T08:41:44;11.00;;;7.15;;
14486;SDS011;7329;50.866;4.366;2022-12-07T08:43:46;9.53;;;7.03;;
14486;SDS011;7329;50.866;4.366;2022-12-07T08:45:51;15.70;;;8.03;;
14486;SDS011;7329;50.866;4.366;2022-12-07T08:48:00;11.47;;;8.10;;
14486;SDS011;7329;50.866;4.366;2022-12-07T08:50:07;10.10;;;7.90;;
14486;SDS011;7329;50.866;4.366;2022-12-07T08:52:12;11.43;;;7.30;;
14486;SDS011;7329;50.866;4.366;2022-12-07T08:54:15;12.47;;;6.67;;
14486;SDS011;7329;50.866;4.366;2022-12-07T08:56:19;10.80;;;5.77;;
14486;SDS011;7329;50.866;4.366;2022-12-07T08:58:23;9.73;;;6.33;;
14486;SDS011;7329;50.866;4.366;2022-12-07T09:00:26;12.30;;;6.13;;
14486;SDS011;7329;50.866;4.366;2022-12-07T09:02:30;10.40;;;5.43;;
14486;SDS011;7329;50.866;4.366;2022-12-07T09:04:32;9.03;;;5.67;;
14486;SDS011;7329;50.866;4.366;2022-12-07T09:06:35;8.88;;;4.78;;
14486;SDS011;7329;50.866;4.366;2022-12-07T09:08:38;6.78;;;4.43;;
14486;SDS011;7329;50.866;4.366;2022-12-07T09:10:44;8.35;;;4.88;;
14486;SDS011;7329;50.866;4.366;2022-12-07T09:12:46;7.32;;;4.63;;
14486;SDS011;7329;50.866;4.366;2022-12-07T09:14:48;10.48;;;4.50;;
14486;SDS011;7329;50.866;4.366;2022-12-07T09:16:51;8.15;;;4.28;;
14486;SDS011;7329;50.866;4.366;2022-12-07T09:18:55;9.05;;;4.38;;
14486;SDS011;7329;50.866;4.366;2022-12-07T09:20:57;9.95;;;3.95;;
14486;SDS011;7329;50.866;4.366;2022-12-07T09:23:00;5.25;;;3.63;;
14486;SDS011;7329;50.866;4.366;2022-12-07T09:25:02;7.93;;;3.75;;
14486;SDS011;7329;50.866;4.366;2022-12-07T09:27:05;6.30;;;3.35;;
14486;SDS011;7329;50.866;4.366;2022-12-07T09:29:08;5.15;;;2.97;;
14486;SDS011;7329;50.866;4.366;2022-12-07T09:31:10;7.90;;;3.25;;
14486;SDS011;7329;50.866;4.366;2022-12-07T09:33:12;6.20;;;3.20;;
14486;SDS011;7329;50.866;4.366;2022-12-07T09:35:17;6.05;;;2.95;;
14486;SDS011;7329;50.866;4.366;2022-12-07T09:37:19;5.28;;;3.50;;
14486;SDS011;7329;50.866;4.366;2022-12-07T09:39:21;4.80;;;3.30;;
14486;SDS011;7329;50.866;4.366;2022-12-07T09:41:24;7.20;;;3.25;;
14486;SDS011;7329;50.866;4.366;2022-12-07T09:43:28;6.55;;;3.08;;
14486;SDS011;7329;50.866;4.366;2022-12-07T09:45:32;5.63;;;3.13;;
14486;SDS011;7329;50.866;4.366;2022-12-07T09:47:36;3.30;;;2.20;;
14486;SDS011;7329;50.866;4.366;2022-12-07T09:49:38;7.43;;;3.30;;
14486;SDS011;7329;50.866;4.366;2022-12-07T09:51:42;6.68;;;3.28;;
14486;SDS011;7329;50.866;4.366;2022-12-07T09:53:45;4.80;;;3.10;;
14486;SDS011;7329;50.866;4.366;2022-12-07T09:55:48;6.35;;;3.00;;
14486;SDS011;7329;50.866;4.366;2022-12-07T09:57:50;4.50;;;3.10;;
14486;SDS011;7329;50.866;4.366;2022-12-07T09:59:53;3.80;;;2.47;;
14486;SDS011;7329;50.866;4.366;2022-12-07T10:01:57;4.35;;;2.80;;
14486;SDS011;7329;50.866;4.366;2022-12-07T10:04:25;4.93;;;3.00;;
14486;SDS011;7329;50.866;4.366;2022-12-07T10:06:28;5.63;;;2.83;;
14486;SDS011;7329;50.866;4.366;2022-12-07T10:08:32;3.90;;;2.67;;
14486;SDS011;7329;50.866;4.366;2022-12-07T10:10:35;4.63;;;2.80;;
14486;SDS011;7329;50.866;4.366;2022-12-07T10:12:50;4.82;;;2.72;;
14486;SDS011;7329;50.866;4.366;2022-12-07T10:15:00;4.93;;;2.92;;
14486;SDS011;7329;50.866;4.366;2022-12-07T10:17:12;3.80;;;2.33;;
14486;SDS011;7329;50.866;4.366;2022-12-07T10:19:31;4.53;;;2.70;;
14486;SDS011;7329;50.866;4.366;2022-12-07T10:21:34;5.07;;;2.78;;
14486;SDS011;7329;50.866;4.366;2022-12-07T10:23:39;5.95;;;2.70;;
14486;SDS011;7329;50.866;4.366;2022-12-07T10:25:42;4.45;;;2.70;;
14486;SDS011;7329;50.866;4.366;2022-12-07T10:27:46;3.67;;;2.70;;
14486;SDS011;7329;50.866;4.366;2022-12-07T10:29:59;6.78;;;2.65;;
14486;SDS011;7329;50.866;4.366;2022-12-07T10:32:26;4.32;;;2.70;;
14486;SDS011;7329;50.866;4.366;2022-12-07T10:34:33;3.78;;;2.75;;
14486;SDS011;7329;50.866;4.366;2022-12-07T10:36:37;6.05;;;2.65;;
14486;SDS011;7329;50.866;4.366;2022-12-07T10:38:45;3.85;;;2.55;;
14486;SDS011;7329;50.866;4.366;2022-12-07T10:40:49;5.95;;;2.60;;
14486;SDS011;7329;50.866;4.366;2022-12-07T10:43:07;4.18;;;2.67;;
14486;SDS011;7329;50.866;4.366;2022-12-07T10:45:19;4.65;;;2.58;;
14486;SDS011;7329;50.866;4.366;2022-12-07T10:47:24;4.22;;;2.40;;
14486;SDS011;7329;50.866;4.366;2022-12-07T10:52:18;3.30;;;2.38;;
14486;SDS011;7329;50.866;4.366;2022-12-07T10:54:40;4.03;;;2.75;;
14486;SDS011;7329;50.866;4.366;2022-12-07T10:56:54;5.70;;;2.65;;
14486;SDS011;7329;50.866;4.366;2022-12-07T11:01:45;4.63;;;2.53;;
14486;SDS011;7329;50.866;4.366;2022-12-07T11:03:54;5.22;;;2.67;;
14486;SDS011;7329;50.866;4.366;2022-12-07T11:06:23;4.57;;;2.60;;
14486;SDS011;7329;50.866;4.366;2022-12-07T11:08:37;4.25;;;2.40;;
14486;SDS011;7329;50.866;4.366;2022-12-07T11:10:50;3.45;;;2.22;;
14486;SDS011;7329;50.866;4.366;2022-12-07T11:13:00;2.90;;;2.33;;
14486;SDS011;7329;50.866;4.366;2022-12-07T11:15:16;3.80;;;2.47;;
14486;SDS011;7329;50.866;4.366;2022-12-07T11:17:24;3.10;;;2.35;;
14486;SDS011;7329;50.866;4.366;2022-12-07T11:22:03;4.10;;;2.35;;
14486;SDS011;7329;50.866;4.366;2022-12-07T11:24:12;3.22;;;2.30;;
14486;SDS011;7329;50.866;4.366;2022-12-07T11:26:21;4.25;;;2.30;;
14486;SDS011;7329;50.866;4.366;2022-12-07T11:28:40;3.30;;;2.30;;
14486;SDS011;7329;50.866;4.366;2022-12-07T11:31:03;3.85;;;2.60;;
14486;SDS011;7329;50.866;4.366;2022-12-07T11:33:15;5.50;;;2.60;;
14486;SDS011;7329;50.866;4.366;2022-12-07T11:35:26;4.28;;;2.40;;
14486;SDS011;7329;50.866;4.366;2022-12-07T11:37:35;3.75;;;2.40;;
14486;SDS011;7329;50.866;4.366;2022-12-07T11:39:41;4.32;;;2.42;;
14486;SDS011;7329;50.866;4.366;2022-12-07T11:41:50;3.80;;;2.17;;
14486;SDS011;7329;50.866;4.366;2022-12-07T11:43:58;4.22;;;2.58;;
14486;SDS011;7329;50.866;4.366;2022-12-07T11:46:03;4.60;;;2.35;;
14486;SDS011;7329;50.866;4.366;2022-12-07T11:48:10;2.42;;;1.83;;
14486;SDS011;7329;50.866;4.366;2022-12-07T11:50:23;3.35;;;2.10;;
14486;SDS011;7329;50.866;4.366;2022-12-07T11:52:32;4.05;;;2.33;;
14486;SDS011;7329;50.866;4.366;2022-12-07T11:54:44;5.20;;;2.17;;
14486;SDS011;7329;50.866;4.366;2022-12-07T11:56:49;2.50;;;2.20;;
14486;SDS011;7329;50.866;4.366;2022-12-07T11:58:54;2.85;;;2.38;;
14486;SDS011;7329;50.866;4.366;2022-12-07T12:01:01;3.30;;;2.35;;
14486;SDS011;7329;50.866;4.366;2022-12-07T12:03:14;2.83;;;2.17;;
14486;SDS011;7329;50.866;4.366;2022-12-07T12:05:23;4.28;;;2.60;;
14486;SDS011;7329;50.866;4.366;2022-12-07T12:07:27;4.28;;;2.63;;
14486;SDS011;7329;50.866;4.366;2022-12-07T12:09:31;4.93;;;2.03;;
14486;SDS011;7329;50.866;4.366;2022-12-07T12:11:39;3.05;;;1.83;;
14486;SDS011;7329;50.866;4.366;2022-12-07T12:16:37;3.47;;;2.40;;
14486;SDS011;7329;50.866;4.366;2022-12-07T12:18:56;4.72;;;1.98;;
14486;SDS011;7329;50.866;4.366;2022-12-07T12:21:09;2.38;;;2.17;;
14486;SDS011;7329;50.866;4.366;2022-12-07T12:23:15;3.67;;;2.30;;
14486;SDS011;7329;50.866;4.366;2022-12-07T12:25:20;4.13;;;2.30;;
14486;SDS011;7329;50.866;4.366;2022-12-07T12:27:27;3.72;;;2.30;;
14486;SDS011;7329;50.866;4.366;2022-12-07T12:29:34;5.50;;;2.40;;
14486;SDS011;7329;50.866;4.366;2022-12-07T12:31:39;6.07;;;2.33;;
14486;SDS011;7329;50.866;4.366;2022-12-07T12:33:43;7.25;;;2.42;;
14486;SDS011;7329;50.866;4.366;2022-12-07T12:35:48;6.15;;;2.40;;
14486;SDS011;7329;50.866;4.366;2022-12-07T12:38:31;7.63;;;2.22;;
14486;SDS011;7329;50.866;4.366;2022-12-07T12:40:38;4.18;;;2.17;;
14486;SDS011;7329;50.866;4.366;2022-12-07T12:42:47;4.78;;;2.10;;
14486;SDS011;7329;50.866;4.366;2022-12-07T12:47:41;6.28;;;2.40;;
14486;SDS011;7329;50.866;4.366;2022-12-07T12:50:11;7.90;;;2.47;;
14486;SDS011;7329;50.866;4.366;2022-12-07T12:54:58;4.32;;;2.40;;
14486;SDS011;7329;50.866;4.366;2022-12-07T12:57:04;3.17;;;2.10;;
14486;SDS011;7329;50.866;4.366;2022-12-07T12:59:23;4.00;;;1.83;;
14486;SDS011;7329;50.866;4.366;2022-12-07T13:03:51;3.65;;;2.00;;
14486;SDS011;7329;50.866;4.366;2022-12-07T13:08:32;4.15;;;1.88;;
14486;SDS011;7329;50.866;4.366;2022-12-07T13:10:40;4.22;;;2.10;;